createdAt,value
2023-04-09T00:02:04.018Z,102387.34
2023-04-09T00:07:06.826Z,102384.00
2023-04-09T00:12:09.798Z,102382.59
2023-04-09T00:17:13.964Z,102375.97
2023-04-09T00:22:16.774Z,102380.38
2023-04-09T00:27:19.541Z,102381.69
2023-04-09T00:32:23.766Z,102378.41
2023-04-09T00:37:26.798Z,102371.19
2023-04-09T00:42:32.946Z,102367.38
2023-04-09T00:47:37.513Z,102373.50
2023-04-09T00:52:40.609Z,102372.53
2023-04-09T00:57:43.403Z,102370.75
2023-04-09T01:02:48.512Z,102367.41
2023-04-09T01:08:00.631Z,102356.56
2023-04-09T01:13:10.256Z,102365.06
2023-04-09T01:18:20.655Z,102374.72
2023-04-09T01:23:33.888Z,102364.69
2023-04-09T01:28:42.090Z,102363.34
2023-04-09T01:33:46.016Z,102364.16
2023-04-09T01:38:51.570Z,102359.34
2023-04-09T01:43:56.901Z,102359.00
2023-04-09T01:49:00.679Z,102360.31
2023-04-09T01:54:05.323Z,102353.16
2023-04-09T01:59:09.493Z,102351.84
2023-04-09T02:04:18.785Z,102356.28
2023-04-09T02:09:24.962Z,102354.97
2023-04-09T02:14:30.799Z,102354.19
2023-04-09T02:19:40.725Z,102350.41
2023-04-09T02:24:43.615Z,102339.13
2023-04-09T02:29:47.750Z,102340.44
2023-04-09T02:34:50.592Z,102344.31
2023-04-09T02:39:53.312Z,102320.94
2023-04-09T02:44:57.707Z,102328.97
2023-04-09T02:50:00.962Z,102330.16
2023-04-09T02:55:08.219Z,102326.41
2023-04-09T03:00:13.966Z,102319.81
2023-04-09T03:05:17.056Z,102315.91
2023-04-09T03:10:19.906Z,102313.03
2023-04-09T03:15:24.087Z,102312.38
2023-04-09T03:20:26.827Z,102309.25
2023-04-09T03:25:29.789Z,102301.47
2023-04-09T03:30:35.026Z,102301.47
2023-04-09T03:35:40.291Z,102297.06
2023-04-09T03:40:43.700Z,102307.34
2023-04-09T03:45:47.873Z,102304.47
2023-04-09T03:51:02.171Z,102304.81
2023-04-09T03:56:13.372Z,102305.88
2023-04-09T04:01:18.036Z,102299.03
2023-04-09T04:06:31.267Z,102300.84
2023-04-09T04:11:50.269Z,102297.47
2023-04-09T04:16:56.037Z,102303.38
2023-04-09T04:22:03.386Z,102300.41
2023-04-09T04:27:09.445Z,102305.38
2023-04-09T04:32:13.709Z,102312.78
2023-04-09T04:37:16.616Z,102310.81
2023-04-09T04:42:19.686Z,102315.13
2023-04-09T04:47:24.777Z,102312.00
2023-04-09T04:52:27.664Z,102320.44
2023-04-09T04:57:30.808Z,102327.69
2023-04-09T05:02:35.589Z,102324.16
2023-04-09T05:07:50.415Z,102315.22
2023-04-09T05:12:53.342Z,102324.94
2023-04-09T05:18:09.483Z,102322.75
2023-04-09T05:23:13.057Z,102325.47
2023-04-09T05:28:18.635Z,102326.41
2023-04-09T05:33:25.968Z,102323.81
2023-04-09T05:38:28.869Z,102324.06
2023-04-09T05:43:34.561Z,102328.88
2023-04-09T05:48:39.265Z,102329.25
2023-04-09T05:53:42.801Z,102329.78
2023-04-09T05:58:46.593Z,102338.72
2023-04-09T06:03:51.841Z,102337.56
2023-04-09T06:08:55.565Z,102339.66
2023-04-09T06:13:58.455Z,102333.69
2023-04-09T06:19:02.582Z,102343.53
2023-04-09T06:24:06.029Z,102344.22
2023-04-09T06:29:09.008Z,102348.50
2023-04-09T06:34:13.097Z,102354.72
2023-04-09T06:39:15.919Z,102354.97
2023-04-09T06:44:19.927Z,102356.66
2023-04-09T06:49:24.278Z,102354.88
2023-04-09T06:54:27.178Z,102358.72
2023-04-09T06:59:29.995Z,102364.34
2023-04-09T07:04:36.526Z,102361.50
2023-04-09T07:09:39.415Z,102366.25
2023-04-09T07:14:42.222Z,102356.13
2023-04-09T07:19:46.380Z,102358.75
2023-04-09T07:24:54.216Z,102363.41
2023-04-09T07:29:57.932Z,102367.72
2023-04-09T07:35:04.493Z,102365.44
2023-04-09T07:40:08.671Z,102366.84
2023-04-09T07:45:11.517Z,102369.00
2023-04-09T07:50:15.893Z,102367.00
2023-04-09T07:55:20.138Z,102362.91
2023-04-09T08:00:23.034Z,102363.94
2023-04-09T08:05:28.287Z,102367.72
2023-04-09T08:10:31.307Z,102368.69
2023-04-09T08:15:34.092Z,102371.13
2023-04-09T08:20:44.938Z,102373.56
2023-04-09T08:25:48.047Z,102372.06
2023-04-09T08:30:50.974Z,102372.00
2023-04-09T08:35:55.450Z,102367.41
2023-04-09T08:40:58.832Z,102362.03
2023-04-09T08:46:03.329Z,102363.47
2023-04-09T08:51:08.291Z,102358.00
2023-04-09T08:56:15.789Z,102356.69
2023-04-09T09:01:25.959Z,102359.91
2023-04-09T09:06:33.067Z,102363.16
2023-04-09T09:11:37.017Z,102368.19
2023-04-09T09:16:43.245Z,102369.56
2023-04-09T09:21:57.324Z,102367.78
2023-04-09T09:27:00.597Z,102362.50
2023-04-09T09:32:03.437Z,102369.13
2023-04-09T09:37:27.949Z,102368.47
2023-04-09T09:42:32.122Z,102352.94
2023-04-09T09:47:36.462Z,102356.16
2023-04-09T09:52:42.979Z,102361.41
2023-04-09T09:57:48.541Z,102354.41
2023-04-09T10:02:57.742Z,102350.78
2023-04-09T10:08:04.448Z,102358.91
2023-04-09T10:13:10.141Z,102353.16
2023-04-09T10:18:13.071Z,102346.97
2023-04-09T10:23:29.029Z,102342.41
2023-04-09T10:28:32.204Z,102344.19
2023-04-09T10:33:38.057Z,102332.25
2023-04-09T10:38:46.828Z,102330.34
2023-04-09T10:43:53.305Z,102329.88
2023-04-09T10:49:13.530Z,102320.41
2023-04-09T10:54:48.167Z,102321.09
2023-04-09T10:59:52.660Z,102315.59
2023-04-09T11:05:07.217Z,102306.72
2023-04-09T11:10:43.464Z,102308.50
2023-04-09T11:15:46.912Z,102306.88
2023-04-09T11:20:50.135Z,102309.59
2023-04-09T11:25:55.314Z,102294.34
2023-04-09T11:30:58.260Z,102315.06
2023-04-09T11:36:01.754Z,102293.13
2023-04-09T11:41:06.243Z,102295.09
2023-04-09T11:46:10.139Z,102287.41
2023-04-09T11:51:13.086Z,102286.25
2023-04-09T11:56:17.581Z,102287.84
2023-04-09T12:01:23.274Z,102275.69
2023-04-09T12:06:27.380Z,102272.03
2023-04-09T12:11:32.963Z,102261.31
2023-04-09T12:16:36.737Z,102270.63
2023-04-09T12:21:49.707Z,102265.22
2023-04-09T12:26:53.961Z,102253.56
2023-04-09T12:32:23.902Z,102252.91
2023-04-09T12:37:38.794Z,102251.94
2023-04-09T12:42:43.749Z,102245.66
2023-04-09T12:47:47.471Z,102247.25
2023-04-09T12:52:52.780Z,102247.16
2023-04-09T12:57:57.052Z,102245.06
2023-04-09T13:03:00.164Z,102242.25
2023-04-09T13:08:05.380Z,102221.75
2023-04-09T13:13:12.860Z,102224.22
2023-04-09T13:18:16.320Z,102223.22
2023-04-09T13:23:19.153Z,102206.22
2023-04-09T13:28:26.247Z,102196.75
2023-04-09T13:33:33.075Z,102198.53
2023-04-09T13:38:35.989Z,102207.31
2023-04-09T13:43:40.741Z,102204.72
2023-04-09T13:48:46.949Z,102190.44
2023-04-09T13:53:49.932Z,102202.09
2023-04-09T13:58:54.713Z,102188.66
2023-04-09T14:03:59.603Z,102183.00
2023-04-09T14:09:02.599Z,102176.44
2023-04-09T14:14:10.071Z,102174.22
2023-04-09T14:19:12.803Z,102172.41
2023-04-09T14:24:18.626Z,102172.06
2023-04-09T14:29:28.507Z,102172.47
2023-04-09T14:34:31.710Z,102165.41
2023-04-09T14:39:34.425Z,102183.59
2023-04-09T14:44:38.993Z,102174.50
2023-04-09T14:49:42.493Z,102169.16
2023-04-09T14:54:46.654Z,102165.59
2023-04-09T14:59:51.274Z,102163.91
2023-04-09T15:04:54.229Z,102142.66
2023-04-09T15:09:59.457Z,102127.78
2023-04-09T15:15:07.088Z,102122.72
2023-04-09T15:20:10.464Z,102134.28
2023-04-09T15:25:14.486Z,102135.81
2023-04-09T15:30:25.628Z,102116.34
2023-04-09T15:35:31.720Z,102121.28
2023-04-09T15:40:34.678Z,102119.97
2023-04-09T15:45:39.010Z,102121.00
2023-04-09T15:50:41.855Z,102115.66
2023-04-09T15:55:44.614Z,102115.28
2023-04-09T16:00:50.347Z,102115.31
2023-04-09T16:05:53.146Z,102108.72
2023-04-09T16:10:59.565Z,102100.34
2023-04-09T16:16:04.088Z,102099.38
2023-04-09T16:21:07.339Z,102095.16
2023-04-09T16:26:11.435Z,102102.50
2023-04-09T16:31:16.281Z,102095.16
2023-04-09T16:36:19.366Z,102094.38
2023-04-09T16:41:22.202Z,102095.03
2023-04-09T16:46:26.375Z,102093.59
2023-04-09T16:51:31.545Z,102089.47
2023-04-09T16:56:34.390Z,102083.44
2023-04-09T17:01:41.355Z,102085.22
2023-04-09T17:06:44.350Z,102106.28
2023-04-09T17:11:47.175Z,102106.28
2023-04-09T17:16:52.891Z,102105.44
2023-04-09T17:21:56.019Z,102098.72
2023-04-09T17:27:02.909Z,102093.41
2023-04-09T17:32:09.791Z,102103.88
2023-04-09T17:37:12.602Z,102104.44
2023-04-09T17:42:15.381Z,102092.25
2023-04-09T17:47:20.293Z,102099.75
2023-04-09T17:52:23.073Z,102094.97
2023-04-09T17:57:25.884Z,102100.75
2023-04-09T18:02:30.325Z,102107.28
2023-04-09T18:07:34.351Z,102108.31
2023-04-09T18:12:37.127Z,102108.72
2023-04-09T18:17:41.492Z,102107.53
2023-04-09T18:22:45.023Z,102112.63
2023-04-09T18:27:47.884Z,102105.03
2023-04-09T18:32:52.409Z,102109.97
2023-04-09T18:37:55.255Z,102116.75
2023-04-09T18:42:58.017Z,102116.94
2023-04-09T18:48:05.570Z,102131.78
2023-04-09T18:53:08.463Z,102132.03
2023-04-09T18:58:14.951Z,102131.31
2023-04-09T19:03:20.235Z,102148.91
2023-04-09T19:08:23.570Z,102144.06
2023-04-09T19:13:26.456Z,102142.84
2023-04-09T19:18:31.427Z,102136.78
2023-04-09T19:23:35.148Z,102150.47
2023-04-09T19:28:38.243Z,102153.59
2023-04-09T19:33:42.989Z,102164.16
2023-04-09T19:38:45.931Z,102170.78
2023-04-09T19:43:49.025Z,102163.31
2023-04-09T19:48:53.414Z,102164.00
2023-04-09T19:53:56.475Z,102161.41
2023-04-09T19:58:59.323Z,102155.63
2023-04-09T20:04:03.703Z,102155.00
2023-04-09T20:09:07.274Z,102159.44
2023-04-09T20:14:11.165Z,102155.25
2023-04-09T20:19:15.303Z,102157.59
2023-04-09T20:24:18.911Z,102152.66
2023-04-09T20:29:21.736Z,102150.69
2023-04-09T20:34:27.526Z,102140.06
2023-04-09T20:39:31.264Z,102142.38
2023-04-09T20:44:34.143Z,102135.69
2023-04-09T20:49:38.584Z,102146.72
2023-04-09T20:54:43.113Z,102142.56
2023-04-09T20:59:46.194Z,102142.59
2023-04-09T21:04:50.517Z,102142.91
2023-04-09T21:09:53.645Z,102133.94
2023-04-09T21:14:56.667Z,102132.16
2023-04-09T21:20:01.334Z,102127.78
2023-04-09T21:25:04.370Z,102120.47
2023-04-09T21:30:08.476Z,102124.22
2023-04-09T21:35:12.568Z,102128.50
2023-04-09T21:40:17.692Z,102133.72
2023-04-09T21:45:21.127Z,102135.59
2023-04-09T21:50:25.377Z,102125.88
2023-04-09T21:55:28.155Z,102139.28
2023-04-09T22:00:30.903Z,102127.13
2023-04-09T22:05:35.253Z,102129.38
2023-04-09T22:10:38.080Z,102131.28
2023-04-09T22:15:41.864Z,102129.06
2023-04-09T22:20:46.164Z,102131.25
2023-04-09T22:25:48.910Z,102125.97
2023-04-09T22:30:53.701Z,102129.69
2023-04-09T22:35:59.229Z,102118.09
2023-04-09T22:41:02.262Z,102127.16
2023-04-09T22:46:05.308Z,102117.38
2023-04-09T22:51:09.451Z,102117.13
2023-04-09T22:56:12.664Z,102117.56
2023-04-09T23:01:15.511Z,102111.34
2023-04-09T23:06:19.683Z,102113.69
2023-04-09T23:11:22.408Z,102119.66
2023-04-09T23:16:26.266Z,102118.19
2023-04-09T23:21:31.070Z,102120.78
2023-04-09T23:26:33.879Z,102116.13
2023-04-09T23:31:36.860Z,102114.50
2023-04-09T23:36:41.120Z,102121.69
2023-04-09T23:41:44.026Z,102122.69
2023-04-09T23:46:46.905Z,102127.03
2023-04-09T23:51:51.886Z,102119.97
2023-04-09T23:56:54.589Z,102119.28
